Terminal Aerodrome Forecast
Issued by NWS Portland, OR

Home | Current Version | Previous Version | Text Only | Print | Product List | Glossary On
Versions: 1 2 3 4 5 6 7 8 9 10 11 12 13 14 15 16 17 18 19 20 21 22 23 24 25
000
FTUS46 KPQR 041720
TAFTTD
TAF
KTTD 041720Z 0418/0518 VRB03KT P6SM FEW020 SCT250
     FM042100 29005KT P6SM SCT250
     FM051200 VRB04KT P6SM OVC020
     FM051700 27005KT P6SM SCT020 SCT250=

USA.gov is the U.S. government's official web portal to all federal, state and local government web resources and services.